createdAt,value
2019-03-03T07:19:47.271Z,72.07
2019-03-03T07:20:47.239Z,71.66
2019-03-03T07:21:47.226Z,71.66
2019-03-03T07:22:47.218Z,71.94
2019-03-03T07:23:47.206Z,71.01
2019-03-03T07:24:47.214Z,71.12
2019-03-03T07:25:47.184Z,70.61
2019-03-03T07:26:47.179Z,71.01
2019-03-03T07:27:47.164Z,71.12
2019-03-03T07:28:47.160Z,71.12
2019-03-03T07:29:47.163Z,71.63
2019-03-03T07:30:47.151Z,71.09
2019-03-03T07:31:47.119Z,69.96
2019-03-03T07:32:47.108Z,70.57
2019-03-03T07:33:47.117Z,70.27
2019-03-03T07:34:47.192Z,70.37
2019-03-03T07:35:47.082Z,69.73
2019-03-03T07:36:47.068Z,70.03
2019-03-03T07:37:47.055Z,69.76
2019-03-03T07:38:47.044Z,69.93
2019-03-03T07:39:54.088Z,69.45
2019-03-03T07:40:47.022Z,70.17
2019-03-03T07:41:47.015Z,70.27
2019-03-03T07:42:47.002Z,70.47
2019-03-03T07:43:47.028Z,70.14
2019-03-03T07:44:46.998Z,70.14
2019-03-03T07:45:46.967Z,70.27
2019-03-03T07:46:46.985Z,70.37
2019-03-03T07:47:46.947Z,70.27
2019-03-03T07:48:46.942Z,70.47
2019-03-03T07:49:46.960Z,70.14
2019-03-03T07:50:46.914Z,70.37
2019-03-03T07:51:46.901Z,70.27
2019-03-03T07:52:46.890Z,70.47
2019-03-03T07:53:46.884Z,70.47
2019-03-03T07:54:46.908Z,70.47
2019-03-03T07:55:46.861Z,70.57
2019-03-03T07:56:46.846Z,70.68
2019-03-03T07:57:47.007Z,70.68
2019-03-03T07:58:46.825Z,70.78
2019-03-03T07:59:46.820Z,70.57
2019-03-03T08:00:46.840Z,70.68
2019-03-03T08:01:46.791Z,70.27
2019-03-03T08:02:46.781Z,70.68
2019-03-03T08:03:46.766Z,70.88
2019-03-03T08:04:46.754Z,70.78
2019-03-03T08:05:46.767Z,70.57
2019-03-03T08:06:46.751Z,70.57
2019-03-03T08:07:46.722Z,70.68
2019-03-03T08:08:46.719Z,70.95
2019-03-03T08:09:46.703Z,71.19
2019-03-03T08:10:46.711Z,70.98
2019-03-03T08:11:46.687Z,70.88
2019-03-03T08:12:46.666Z,70.88
2019-03-03T08:13:46.666Z,70.88
2019-03-03T08:14:46.656Z,71.19
2019-03-03T08:15:46.677Z,71.09
2019-03-03T08:16:46.625Z,71.09
2019-03-03T08:17:46.611Z,71.29
2019-03-03T08:18:46.599Z,70.88
2019-03-03T08:19:46.598Z,71.19
2019-03-03T08:20:46.603Z,71.29
2019-03-03T08:21:46.592Z,71.39
2019-03-03T08:22:46.566Z,71.39
2019-03-03T08:23:46.544Z,70.98
2019-03-03T08:24:46.564Z,71.09
2019-03-03T08:25:46.555Z,70.98
2019-03-03T08:26:46.509Z,71.09
2019-03-03T08:27:46.499Z,70.68
2019-03-03T08:28:46.497Z,70.68
2019-03-03T08:29:46.478Z,70.78
2019-03-03T08:30:46.486Z,70.78
2019-03-03T08:31:46.479Z,70.78
2019-03-03T08:32:46.456Z,70.98
2019-03-03T08:33:46.431Z,71.09
2019-03-03T08:34:46.433Z,71.59
2019-03-03T08:35:46.429Z,71.09
2019-03-03T08:36:46.399Z,71.19
2019-03-03T08:37:46.392Z,71.09
2019-03-03T08:38:46.382Z,70.85
2019-03-03T08:39:46.366Z,70.75
2019-03-03T08:40:46.376Z,70.64
2019-03-03T08:41:46.358Z,70.64
2019-03-03T08:42:46.336Z,70.75
2019-03-03T08:43:46.337Z,71.05
2019-03-03T08:44:46.311Z,71.26
2019-03-03T08:45:46.333Z,71.15
2019-03-03T08:46:46.286Z,70.98
2019-03-03T08:47:52.987Z,70.98
2019-03-03T08:48:47.273Z,70.75
2019-03-03T08:49:46.256Z,71.05
2019-03-03T08:50:46.252Z,71.19
2019-03-03T08:51:46.283Z,71.05
2019-03-03T08:52:46.219Z,71.05
2019-03-03T08:53:46.235Z,70.64
2019-03-03T08:54:46.199Z,70.44
2019-03-03T08:55:46.203Z,70.54
2019-03-03T08:56:46.209Z,70.34
2019-03-03T08:57:46.174Z,70.44
2019-03-03T08:58:46.155Z,70.44
2019-03-03T08:59:46.145Z,70.85
2019-03-03T09:00:46.153Z,70.34
2019-03-03T09:01:46.143Z,70.34
2019-03-03T09:02:46.107Z,70.44
2019-03-03T09:03:46.095Z,70.14
2019-03-03T09:04:46.086Z,70.23
2019-03-03T09:05:46.072Z,70.44
2019-03-03T09:06:46.081Z,70.40
2019-03-03T09:07:46.069Z,70.40
2019-03-03T09:08:46.041Z,70.10
2019-03-03T09:09:46.029Z,70.92
2019-03-03T09:10:46.020Z,70.81
2019-03-03T09:11:46.028Z,70.72
2019-03-03T09:12:45.994Z,70.51
2019-03-03T09:13:45.983Z,70.51
2019-03-03T09:14:45.993Z,70.72
2019-03-03T09:15:45.965Z,70.81
2019-03-03T09:16:45.991Z,70.81
2019-03-03T09:17:45.942Z,70.51
2019-03-03T09:18:45.933Z,70.31
2019-03-03T09:19:45.920Z,70.40
2019-03-03T09:20:45.912Z,70.20
2019-03-03T09:21:45.893Z,69.90
2019-03-03T09:22:45.901Z,70.20
2019-03-03T09:23:45.872Z,70.81
2019-03-03T09:24:45.879Z,71.02
2019-03-03T09:25:45.847Z,70.51
2019-03-03T09:26:45.843Z,70.31
2019-03-03T09:27:45.845Z,70.48
2019-03-03T09:28:45.814Z,70.20
2019-03-03T09:29:45.805Z,70.40
2019-03-03T09:30:45.800Z,70.07
2019-03-03T09:31:45.786Z,70.57
2019-03-03T09:32:45.793Z,70.68
2019-03-03T09:33:45.761Z,70.48
2019-03-03T09:34:45.746Z,71.29
2019-03-03T09:35:45.733Z,71.73
2019-03-03T09:36:45.736Z,71.70
2019-03-03T09:37:45.738Z,71.50
2019-03-03T09:38:45.701Z,71.70
2019-03-03T09:39:45.693Z,71.22
2019-03-03T09:40:45.682Z,71.33
2019-03-03T09:41:45.670Z,71.09
2019-03-03T09:42:45.702Z,71.43
2019-03-03T09:43:45.653Z,71.29
2019-03-03T09:44:45.631Z,70.98
2019-03-03T09:45:45.620Z,70.98
2019-03-03T09:46:45.613Z,71.09
2019-03-03T09:47:45.621Z,71.19
2019-03-03T09:48:45.586Z,70.98
2019-03-03T09:49:45.582Z,71.09
2019-03-03T09:50:45.562Z,70.78
2019-03-03T09:51:45.556Z,70.98
2019-03-03T09:52:45.561Z,71.09
2019-03-03T09:53:45.531Z,70.98
2019-03-03T09:54:45.519Z,71.19
2019-03-03T09:55:45.513Z,71.09
2019-03-03T09:56:45.502Z,71.60
2019-03-03T09:57:45.507Z,71.91
2019-03-03T09:58:45.478Z,71.70
2019-03-03T09:59:45.462Z,72.11
2019-03-03T10:00:45.461Z,72.00
2019-03-03T10:01:45.442Z,72.41
2019-03-03T10:02:45.450Z,72.72
2019-03-03T10:03:45.428Z,72.82
2019-03-03T10:04:45.408Z,72.92
2019-03-03T10:05:45.409Z,72.62
2019-03-03T10:06:45.383Z,73.23
2019-03-03T10:07:45.418Z,73.54
2019-03-03T10:08:45.358Z,73.13
2019-03-03T10:09:45.349Z,73.84
2019-03-03T10:10:45.339Z,74.35
2019-03-03T10:11:45.327Z,75.92
2019-03-03T10:12:45.355Z,74.69
2019-03-03T10:13:45.312Z,75.10
2019-03-03T10:14:45.294Z,75.51
2019-03-03T10:15:45.281Z,74.59
2019-03-03T10:16:45.283Z,74.90
2019-03-03T10:17:45.291Z,74.38
2019-03-03T10:18:45.257Z,74.49
2019-03-03T10:19:45.242Z,75.10
2019-03-03T10:20:45.226Z,74.59
2019-03-03T10:21:45.217Z,74.79
2019-03-03T10:22:45.259Z,74.96
2019-03-03T10:23:45.199Z,75.41
2019-03-03T10:24:45.182Z,75.00
2019-03-03T10:25:45.175Z,75.51
2019-03-03T10:26:45.154Z,75.41
2019-03-03T10:27:45.171Z,75.51
2019-03-03T10:28:45.133Z,75.82
2019-03-03T10:29:45.122Z,76.63
2019-03-03T10:30:45.113Z,76.12
2019-03-03T10:31:45.097Z,76.02
2019-03-03T10:32:45.109Z,76.12
2019-03-03T10:33:45.084Z,76.32
2019-03-03T10:34:45.066Z,76.43
2019-03-03T10:35:45.055Z,76.84
2019-03-03T10:36:45.042Z,76.53
2019-03-03T10:37:45.053Z,76.32
2019-03-03T10:38:45.021Z,77.75
2019-03-03T10:39:45.008Z,77.25
2019-03-03T10:40:45.002Z,77.45
2019-03-03T10:41:44.987Z,77.55
2019-03-03T10:42:45.037Z,77.65
2019-03-03T10:43:44.963Z,77.65
2019-03-03T10:44:44.952Z,77.48
2019-03-03T10:45:44.944Z,76.84
2019-03-03T10:46:44.930Z,76.73
2019-03-03T10:47:44.926Z,77.86
2019-03-03T10:48:44.933Z,77.45
2019-03-03T10:49:44.900Z,77.45
2019-03-03T10:50:44.884Z,77.14
2019-03-03T10:51:44.872Z,77.45
2019-03-03T10:52:44.859Z,76.93
2019-03-03T10:53:44.869Z,76.73
2019-03-03T10:54:44.842Z,77.86
2019-03-03T10:55:44.830Z,76.93
2019-03-03T10:56:44.841Z,76.93
2019-03-03T10:57:44.829Z,76.84
2019-03-03T10:58:44.813Z,76.84
2019-03-03T10:59:44.792Z,76.73
2019-03-03T11:00:44.769Z,76.32
2019-03-03T11:01:44.760Z,76.12
2019-03-03T11:02:44.754Z,76.32
2019-03-03T11:03:44.761Z,76.02
2019-03-03T11:04:44.725Z,75.92
2019-03-03T11:05:44.717Z,76.73
2019-03-03T11:06:44.701Z,76.53
2019-03-03T11:07:44.699Z,76.43
2019-03-03T11:08:44.708Z,75.88
2019-03-03T11:09:44.667Z,76.32
2019-03-03T11:10:44.655Z,76.53
2019-03-03T11:11:44.645Z,76.84
2019-03-03T11:12:44.633Z,77.45
2019-03-03T11:13:44.717Z,78.27
2019-03-03T11:14:44.622Z,77.75
2019-03-03T11:15:44.609Z,77.75
2019-03-03T11:16:44.587Z,78.77
2019-03-03T11:17:44.581Z,78.57
2019-03-03T11:18:44.612Z,78.57
2019-03-03T11:19:44.560Z,78.77
2019-03-03T11:20:44.551Z,78.84
2019-03-03T11:21:44.536Z,78.33
2019-03-03T11:22:44.523Z,78.53
2019-03-03T11:23:44.529Z,78.53
2019-03-03T11:24:44.497Z,78.53
2019-03-03T11:25:44.492Z,79.45
2019-03-03T11:26:44.489Z,79.14
2019-03-03T11:27:44.466Z,78.84
2019-03-03T11:28:44.518Z,78.94
2019-03-03T11:29:44.443Z,79.35
2019-03-03T11:30:44.428Z,79.66
2019-03-03T11:31:44.422Z,79.25
2019-03-03T11:32:44.407Z,79.25
2019-03-03T11:33:44.413Z,79.35
2019-03-03T11:34:44.386Z,79.04
2019-03-03T11:35:44.380Z,80.07
2019-03-03T11:36:44.361Z,80.37
2019-03-03T11:37:44.352Z,79.55
2019-03-03T11:38:44.358Z,80.20
2019-03-03T11:39:44.326Z,79.96
2019-03-03T11:40:44.320Z,80.68
2019-03-03T11:41:44.307Z,80.47
2019-03-03T11:42:44.296Z,79.55
2019-03-03T11:43:44.309Z,80.07
2019-03-03T11:44:44.272Z,79.96
2019-03-03T11:45:44.261Z,79.28
2019-03-03T11:46:44.254Z,78.98
2019-03-03T11:47:44.238Z,79.96
2019-03-03T11:48:44.253Z,79.18
2019-03-03T11:49:44.223Z,78.74
2019-03-03T11:50:44.213Z,77.41
2019-03-03T11:51:44.195Z,78.02
2019-03-03T11:52:44.183Z,78.02
2019-03-03T11:53:44.201Z,77.72
2019-03-03T11:54:44.171Z,77.58
2019-03-03T11:55:44.155Z,77.68
2019-03-03T11:56:44.137Z,77.58
2019-03-03T11:57:46.105Z,77.07
2019-03-03T11:58:44.173Z,77.48
2019-03-03T11:59:44.923Z,76.76
2019-03-03T12:00:44.097Z,76.05
2019-03-03T12:01:44.080Z,75.74
2019-03-03T12:02:53.602Z,75.85
2019-03-03T12:03:45.086Z,75.51
2019-03-03T12:04:44.045Z,75.34
2019-03-03T12:05:44.061Z,76.01
2019-03-03T12:06:44.037Z,74.73
2019-03-03T12:07:44.564Z,74.83
2019-03-03T12:08:44.037Z,74.83
2019-03-03T12:09:43.991Z,74.52
2019-03-03T12:10:43.979Z,74.90
2019-03-03T12:11:43.967Z,75.51
2019-03-03T12:12:43.974Z,74.49
2019-03-03T12:13:43.944Z,74.18
2019-03-03T12:14:43.937Z,74.28
2019-03-03T12:15:43.942Z,74.38
2019-03-03T12:16:43.910Z,73.47
2019-03-03T12:17:43.903Z,73.36
2019-03-03T12:18:43.903Z,73.84
2019-03-03T12:19:43.910Z,72.62
2019-03-03T12:20:43.871Z,72.28
2019-03-03T12:21:43.866Z,72.34
2019-03-03T12:22:43.844Z,71.30
2019-03-03T12:23:43.866Z,70.55
2019-03-03T12:24:43.846Z,70.79
2019-03-03T12:25:43.824Z,70.99
2019-03-03T12:26:43.800Z,70.65
2019-03-03T12:27:43.788Z,70.65
2019-03-03T12:28:43.780Z,70.75
2019-03-03T12:29:43.788Z,71.26
2019-03-03T12:30:43.755Z,70.86
2019-03-03T12:31:43.747Z,70.96
2019-03-03T12:32:43.739Z,70.21
2019-03-03T12:33:43.723Z,70.35
2019-03-03T12:34:43.731Z,70.35
2019-03-03T12:35:43.703Z,70.75
2019-03-03T12:36:43.694Z,71.06
2019-03-03T12:37:43.684Z,70.75
2019-03-03T12:38:43.681Z,69.53
2019-03-03T12:39:43.681Z,70.48
2019-03-03T12:40:43.645Z,70.28
2019-03-03T12:41:43.635Z,69.87
2019-03-03T12:42:43.624Z,70.28
2019-03-03T12:43:43.619Z,70.28
2019-03-03T12:44:43.628Z,70.89
2019-03-03T12:45:43.592Z,70.79
2019-03-03T12:46:43.591Z,70.68
2019-03-03T12:47:43.582Z,71.30
2019-03-03T12:48:43.558Z,70.68
2019-03-03T12:49:43.586Z,70.89
2019-03-03T12:50:43.535Z,70.79
2019-03-03T12:51:43.529Z,70.58
2019-03-03T12:52:43.516Z,70.28
2019-03-03T12:53:43.508Z,70.41
2019-03-03T12:54:43.530Z,70.62
2019-03-03T12:55:43.478Z,70.62
2019-03-03T12:56:43.475Z,70.79
2019-03-03T12:57:43.456Z,70.48
2019-03-03T12:58:43.454Z,70.38
2019-03-03T12:59:43.458Z,70.92
2019-03-03T13:00:43.432Z,70.68
2019-03-03T13:01:43.420Z,70.28
2019-03-03T13:02:43.430Z,69.97
2019-03-03T13:03:43.391Z,69.97
2019-03-03T13:04:43.403Z,70.01
2019-03-03T13:05:43.371Z,70.21
2019-03-03T13:06:43.359Z,69.90
2019-03-03T13:07:43.363Z,69.60
2019-03-03T13:08:43.336Z,70.01
2019-03-03T13:09:43.346Z,70.01
2019-03-03T13:10:43.315Z,69.09
2019-03-03T13:11:43.303Z,69.06
2019-03-03T13:12:43.292Z,69.16
2019-03-03T13:13:43.297Z,69.26
2019-03-03T13:14:43.329Z,68.65
2019-03-03T13:15:43.257Z,68.85
2019-03-03T13:16:43.253Z,69.36
2019-03-03T13:17:48.151Z,69.36
2019-03-03T13:18:44.244Z,69.46
2019-03-03T13:19:43.225Z,69.70
2019-03-03T13:20:43.222Z,69.40
2019-03-03T13:21:43.195Z,70.10
2019-03-03T13:22:43.186Z,70.01
2019-03-03T13:23:43.181Z,69.70
2019-03-03T13:24:43.164Z,69.97
2019-03-03T13:25:43.168Z,69.60
2019-03-03T13:26:43.146Z,69.40
2019-03-03T13:27:43.126Z,70.01
2019-03-03T13:28:43.116Z,69.06
2019-03-03T13:29:43.103Z,69.36
2019-03-03T13:30:43.114Z,69.26
2019-03-03T13:31:43.083Z,69.87
2019-03-03T13:32:43.082Z,70.07
2019-03-03T13:33:43.060Z,70.07
2019-03-03T13:34:43.046Z,69.06
2019-03-03T13:35:43.055Z,69.90
2019-03-03T13:36:43.036Z,70.01
2019-03-03T13:37:43.020Z,69.46
2019-03-03T13:38:43.005Z,69.60
2019-03-03T13:39:42.997Z,69.26
2019-03-03T13:40:43.003Z,69.60
2019-03-03T13:41:42.971Z,69.40
2019-03-03T13:42:42.971Z,69.49
2019-03-03T13:43:42.963Z,69.36
2019-03-03T13:44:42.934Z,69.57
2019-03-03T13:45:42.949Z,69.19
2019-03-03T13:46:42.915Z,70.01
2019-03-03T13:47:42.908Z,70.41
2019-03-03T13:48:42.908Z,70.10
2019-03-03T13:49:42.900Z,70.51
2019-03-03T13:50:42.898Z,69.90
2019-03-03T13:51:42.863Z,69.36
2019-03-03T13:52:42.853Z,69.19
2019-03-03T13:53:42.836Z,69.67
2019-03-03T13:54:42.827Z,69.36
2019-03-03T13:55:42.850Z,69.19
2019-03-03T13:56:42.809Z,69.49
2019-03-03T13:57:42.799Z,69.40
2019-03-03T13:58:42.788Z,68.79
2019-03-03T13:59:42.775Z,68.99
2019-03-03T14:00:42.808Z,68.58
2019-03-03T14:01:43.477Z,68.68
2019-03-03T14:02:42.746Z,68.58
2019-03-03T14:03:42.778Z,69.09
2019-03-03T14:04:42.720Z,68.96
2019-03-03T14:05:42.794Z,68.48
2019-03-03T14:06:42.699Z,68.55
2019-03-03T14:07:42.681Z,68.79
2019-03-03T14:08:42.668Z,68.27
2019-03-03T14:09:42.669Z,68.99
2019-03-03T14:10:42.666Z,68.79
2019-03-03T14:11:42.634Z,68.68
2019-03-03T14:12:42.627Z,68.88
2019-03-03T14:13:42.637Z,68.88
2019-03-03T14:14:42.609Z,68.88
2019-03-03T14:15:42.614Z,68.99
2019-03-03T14:16:42.585Z,69.60
2019-03-03T14:17:42.573Z,69.19
2019-03-03T14:18:42.575Z,68.99
2019-03-03T14:19:42.550Z,68.99
2019-03-03T14:20:42.569Z,69.60
2019-03-03T14:21:42.525Z,69.40
2019-03-03T14:22:42.515Z,69.49
2019-03-03T14:23:42.505Z,69.19
2019-03-03T14:24:42.507Z,69.60
2019-03-03T14:25:42.515Z,69.90
2019-03-03T14:26:42.485Z,69.63
2019-03-03T14:27:42.457Z,70.01
2019-03-03T14:28:42.452Z,69.23
2019-03-03T14:29:42.435Z,69.40
2019-03-03T14:30:42.449Z,69.49
2019-03-03T14:31:42.425Z,69.80
2019-03-03T14:32:42.414Z,69.60
2019-03-03T14:33:42.398Z,69.49
2019-03-03T14:34:42.383Z,69.19
2019-03-03T14:35:42.393Z,69.63
2019-03-03T14:36:42.356Z,69.32
2019-03-03T14:37:42.346Z,69.90
2019-03-03T14:38:42.336Z,70.04
2019-03-03T14:39:42.334Z,70.04
2019-03-03T14:40:42.340Z,70.04
2019-03-03T14:41:42.301Z,69.84
2019-03-03T14:42:42.289Z,70.04
2019-03-03T14:43:42.283Z,69.53
2019-03-03T14:44:42.267Z,69.40
2019-03-03T14:45:42.336Z,69.43
2019-03-03T14:46:42.246Z,69.49
2019-03-03T14:47:42.248Z,69.19
2019-03-03T14:48:42.234Z,69.84
2019-03-03T14:49:42.221Z,69.84
2019-03-03T14:50:42.207Z,70.04
2019-03-03T14:51:42.242Z,70.04
2019-03-03T14:52:42.178Z,70.55
2019-03-03T14:53:42.174Z,70.24
2019-03-03T14:54:42.163Z,69.93
2019-03-03T14:55:42.150Z,70.24
2019-03-03T14:56:42.840Z,69.93
2019-03-03T14:57:42.120Z,70.45
2019-03-03T14:58:42.115Z,70.04
2019-03-03T14:59:42.120Z,70.04
2019-03-03T15:00:42.103Z,70.24
2019-03-03T15:01:42.106Z,69.93
2019-03-03T15:02:42.068Z,70.45
2019-03-03T15:03:42.057Z,70.34
2019-03-03T15:04:42.050Z,70.55
2019-03-03T15:05:42.048Z,70.14
2019-03-03T15:06:42.039Z,70.34
2019-03-03T15:07:42.025Z,70.55
2019-03-03T15:08:41.999Z,70.34
2019-03-03T15:09:41.988Z,70.65
2019-03-03T15:10:41.987Z,70.65
2019-03-03T15:11:41.993Z,70.65
2019-03-03T15:12:41.953Z,70.34
2019-03-03T15:13:41.942Z,70.55
2019-03-03T15:14:41.931Z,70.34
2019-03-03T15:15:41.922Z,70.55
2019-03-03T15:16:41.948Z,70.38
2019-03-03T15:17:41.899Z,70.28
2019-03-03T15:18:41.891Z,70.45
2019-03-03T15:19:41.876Z,70.14
2019-03-03T15:20:41.874Z,70.34
2019-03-03T15:21:41.874Z,70.45
2019-03-03T15:22:41.846Z,70.55
2019-03-03T15:23:41.856Z,70.55
2019-03-03T15:24:41.818Z,70.48
2019-03-03T15:25:41.811Z,70.24
2019-03-03T15:26:41.819Z,70.58
2019-03-03T15:27:41.810Z,70.24
2019-03-03T15:28:41.786Z,70.34
2019-03-03T15:29:41.761Z,70.07
2019-03-03T15:30:41.754Z,70.24
2019-03-03T15:31:41.758Z,70.04
2019-03-03T15:32:41.727Z,69.84
2019-03-03T15:33:41.718Z,69.93
2019-03-03T15:34:41.707Z,70.04
2019-03-03T15:35:41.702Z,69.53
2019-03-03T15:36:41.706Z,69.43
2019-03-03T15:37:41.691Z,69.53
2019-03-03T15:38:41.674Z,69.23
2019-03-03T15:39:41.650Z,69.73
2019-03-03T15:40:41.641Z,69.53
2019-03-03T15:41:41.665Z,69.43
2019-03-03T15:42:41.622Z,69.32
2019-03-03T15:43:41.607Z,69.63
2019-03-03T15:44:41.612Z,69.32
2019-03-03T15:45:41.594Z,69.63
2019-03-03T15:46:41.575Z,69.43
2019-03-03T15:47:41.589Z,69.93
2019-03-03T15:48:41.554Z,69.73
2019-03-03T15:49:41.539Z,69.32
2019-03-03T15:50:41.527Z,70.04
2019-03-03T15:51:41.531Z,70.14
2019-03-03T15:52:41.531Z,70.17
2019-03-03T15:53:41.556Z,70.07
2019-03-03T15:54:41.488Z,70.28
2019-03-03T15:55:41.533Z,70.04
2019-03-03T15:56:41.460Z,70.28
2019-03-03T15:57:41.475Z,70.38
2019-03-03T15:58:41.449Z,70.38
2019-03-03T15:59:41.445Z,70.38
2019-03-03T16:00:41.417Z,70.48
2019-03-03T16:01:41.416Z,70.38
2019-03-03T16:02:41.417Z,70.38
2019-03-03T16:03:41.380Z,70.68
2019-03-03T16:04:41.383Z,70.48
2019-03-03T16:05:41.359Z,70.68
2019-03-03T16:06:41.347Z,70.38
2019-03-03T16:07:41.357Z,70.38
2019-03-03T16:08:41.334Z,70.48
2019-03-03T16:09:41.327Z,70.38
2019-03-03T16:10:41.307Z,70.48
2019-03-03T16:11:41.292Z,70.48
2019-03-03T16:12:41.301Z,70.48
2019-03-03T16:13:41.279Z,70.48
2019-03-03T16:14:41.258Z,70.58
2019-03-03T16:15:41.249Z,69.67
2019-03-03T16:16:41.250Z,70.38
2019-03-03T16:17:41.257Z,70.48
2019-03-03T16:18:41.214Z,70.28
2019-03-03T16:19:41.201Z,70.38
2019-03-03T16:20:41.196Z,70.38
2019-03-03T16:21:41.179Z,70.28
2019-03-03T16:22:41.187Z,70.38
2019-03-03T16:23:41.158Z,70.07
2019-03-03T16:24:41.150Z,69.76
2019-03-03T16:25:41.134Z,69.97
2019-03-03T16:26:41.135Z,70.58
2019-03-03T16:27:41.137Z,70.48
2019-03-03T16:28:41.100Z,70.10
2019-03-03T16:29:41.089Z,70.17
2019-03-03T16:30:41.085Z,70.00
2019-03-03T16:31:41.066Z,70.07
2019-03-03T16:32:41.076Z,70.21
2019-03-03T16:33:41.052Z,70.00
2019-03-03T16:34:41.034Z,69.56
2019-03-03T16:35:41.024Z,69.76
2019-03-03T16:36:41.015Z,69.80
2019-03-03T16:37:41.034Z,69.56
2019-03-03T16:38:40.989Z,69.36
2019-03-03T16:39:40.982Z,69.36
2019-03-03T16:40:40.965Z,69.09
2019-03-03T16:41:40.953Z,68.95
2019-03-03T16:42:40.961Z,69.36
2019-03-03T16:43:40.935Z,69.36
2019-03-03T16:44:40.925Z,69.29
2019-03-03T16:45:40.908Z,68.54
2019-03-03T16:46:40.901Z,68.85
2019-03-03T16:47:40.946Z,68.78
2019-03-03T16:48:40.874Z,68.75
2019-03-03T16:49:40.864Z,68.85
2019-03-03T16:50:40.856Z,68.98
2019-03-03T16:51:40.840Z,69.19
2019-03-03T16:52:40.843Z,69.06
2019-03-03T16:53:40.842Z,69.06
2019-03-03T16:54:40.804Z,68.65
2019-03-03T16:55:40.795Z,68.57
2019-03-03T16:56:40.794Z,69.09
2019-03-03T16:57:40.771Z,69.67
2019-03-03T16:58:40.785Z,68.75
2019-03-03T16:59:40.754Z,68.34
2019-03-03T17:00:40.741Z,68.48
2019-03-03T17:01:40.735Z,68.88
2019-03-03T17:02:40.715Z,68.44
2019-03-03T17:03:40.727Z,69.26
2019-03-03T17:04:40.712Z,68.24
2019-03-03T17:05:40.693Z,68.95
2019-03-03T17:06:40.672Z,68.65
2019-03-03T17:07:40.658Z,69.46
2019-03-03T17:08:40.685Z,68.75
2019-03-03T17:09:40.633Z,68.54
2019-03-03T17:10:40.622Z,68.75
2019-03-03T17:11:40.625Z,67.83
2019-03-03T17:12:40.605Z,68.65
2019-03-03T17:13:40.620Z,69.46
2019-03-03T17:14:40.576Z,67.93
2019-03-03T17:15:40.571Z,69.36
2019-03-03T17:16:40.568Z,69.26
2019-03-03T17:17:40.547Z,68.04
2019-03-03T17:18:40.566Z,68.88
2019-03-03T17:19:40.530Z,68.85
2019-03-03T17:20:40.510Z,68.75
2019-03-03T17:21:40.507Z,68.34
2019-03-03T17:22:40.494Z,68.65
2019-03-03T17:23:40.495Z,68.65
2019-03-03T17:24:40.467Z,68.13
2019-03-03T17:25:40.456Z,68.24
2019-03-03T17:26:40.441Z,68.34
2019-03-03T17:27:40.440Z,68.75
2019-03-03T17:28:40.438Z,68.65
2019-03-03T17:29:40.409Z,68.75
2019-03-03T17:30:40.397Z,68.44
2019-03-03T17:31:40.385Z,68.44
2019-03-03T17:32:40.375Z,68.44
2019-03-03T17:33:40.386Z,68.44
2019-03-03T17:34:40.351Z,68.65
2019-03-03T17:35:40.340Z,68.34
2019-03-03T17:36:40.329Z,68.13
2019-03-03T17:37:40.316Z,68.44
2019-03-03T17:38:40.327Z,68.24
2019-03-03T17:39:40.297Z,68.95
2019-03-03T17:40:40.284Z,68.54
2019-03-03T17:41:40.277Z,68.24
2019-03-03T17:42:40.263Z,68.54
2019-03-03T17:43:40.278Z,68.54
2019-03-03T17:44:40.239Z,68.24
2019-03-03T17:45:40.240Z,68.13
2019-03-03T17:46:40.218Z,68.13
2019-03-03T17:47:40.203Z,68.04
2019-03-03T17:48:40.224Z,68.13
2019-03-03T17:49:40.183Z,68.13
2019-03-03T17:50:40.173Z,67.73
2019-03-03T17:51:40.167Z,68.44
2019-03-03T17:52:40.153Z,67.43
2019-03-03T17:53:40.165Z,68.34
2019-03-03T17:54:40.125Z,67.22
2019-03-03T17:55:40.116Z,67.83
2019-03-03T17:56:40.107Z,68.13
2019-03-03T17:57:40.104Z,67.52
2019-03-03T17:58:40.110Z,67.43
2019-03-03T17:59:40.069Z,67.43
2019-03-03T18:00:40.056Z,67.83
2019-03-03T18:01:40.045Z,67.93
2019-03-03T18:02:40.041Z,67.43
2019-03-03T18:03:40.024Z,67.22
2019-03-03T18:04:40.050Z,67.22
2019-03-03T18:05:40.010Z,67.32
2019-03-03T18:06:39.988Z,67.43
2019-03-03T18:07:40.067Z,67.43
2019-03-03T18:08:39.966Z,67.52
2019-03-03T18:09:39.981Z,67.43
2019-03-03T18:10:39.966Z,67.22
2019-03-03T18:11:39.982Z,67.32
2019-03-03T18:12:39.921Z,67.43
2019-03-03T18:13:39.928Z,67.22
2019-03-03T18:14:39.919Z,67.43
2019-03-03T18:15:39.907Z,67.43
2019-03-03T18:16:39.874Z,67.22
2019-03-03T18:17:39.864Z,67.22
2019-03-03T18:18:39.855Z,67.32
2019-03-03T18:19:39.867Z,67.32
2019-03-03T18:20:39.836Z,67.52
2019-03-03T18:21:39.828Z,67.22
2019-03-03T18:22:39.813Z,67.43
2019-03-03T18:23:39.796Z,67.52
2019-03-03T18:24:39.808Z,67.15
2019-03-03T18:25:39.777Z,67.32
2019-03-03T18:26:39.767Z,67.32
2019-03-03T18:27:39.761Z,67.43
2019-03-03T18:28:39.749Z,66.91
2019-03-03T18:29:39.756Z,66.91
2019-03-03T18:30:39.716Z,67.73
2019-03-03T18:31:39.708Z,67.52
2019-03-03T18:32:39.701Z,67.22
2019-03-03T18:33:39.702Z,67.12
2019-03-03T18:34:39.701Z,67.73
2019-03-03T18:35:39.667Z,67.63
2019-03-03T18:36:39.649Z,67.32
2019-03-03T18:37:39.639Z,67.22
2019-03-03T18:38:39.651Z,66.71
2019-03-03T18:39:39.651Z,67.22
2019-03-03T18:40:39.603Z,67.02
2019-03-03T18:41:39.592Z,67.02
2019-03-03T18:42:39.585Z,66.82
2019-03-03T18:43:39.570Z,67.02
2019-03-03T18:44:39.579Z,66.82
2019-03-03T18:45:39.565Z,66.91
2019-03-03T18:46:39.536Z,66.71
2019-03-03T18:47:39.524Z,67.22
2019-03-03T18:48:39.514Z,67.63
2019-03-03T18:49:39.527Z,68.04
2019-03-03T18:50:39.494Z,67.32
2019-03-03T18:51:39.502Z,66.82
2019-03-03T18:52:39.472Z,67.02
2019-03-03T18:53:39.461Z,67.22
2019-03-03T18:54:39.446Z,67.02
2019-03-03T18:55:39.453Z,67.12
2019-03-03T18:56:39.439Z,68.04
2019-03-03T18:57:39.416Z,67.52
2019-03-03T18:58:39.405Z,67.43
2019-03-03T18:59:39.391Z,67.02
2019-03-03T19:00:39.406Z,67.22
2019-03-03T19:01:39.379Z,67.73
2019-03-03T19:02:39.357Z,67.32
2019-03-03T19:03:39.344Z,67.83
2019-03-03T19:04:39.333Z,67.12
2019-03-03T19:05:39.340Z,67.52
2019-03-03T19:06:39.324Z,67.12
2019-03-03T19:07:39.323Z,67.63
2019-03-03T19:08:39.290Z,67.73
2019-03-03T19:09:39.276Z,67.52
2019-03-03T19:10:39.283Z,67.52
2019-03-03T19:11:39.258Z,67.63
2019-03-03T19:12:39.257Z,67.63
2019-03-03T19:13:39.234Z,67.52
2019-03-03T19:14:39.221Z,67.63
2019-03-03T19:15:39.259Z,67.52
2019-03-03T19:16:39.210Z,67.52
2019-03-03T19:17:39.194Z,67.52
2019-03-03T19:18:39.197Z,67.32
2019-03-03T19:19:39.168Z,67.32
2019-03-03T19:20:39.176Z,67.32
2019-03-03T19:21:39.142Z,67.22
2019-03-03T19:22:39.132Z,67.22
2019-03-03T19:23:39.121Z,67.22
2019-03-03T19:24:39.121Z,67.43
2019-03-03T19:25:39.116Z,67.32
2019-03-03T19:26:39.084Z,67.43
2019-03-03T19:27:40.817Z,67.25
2019-03-03T19:28:39.062Z,67.25
2019-03-03T19:29:39.052Z,67.32
2019-03-03T19:30:39.071Z,67.52
2019-03-03T19:31:39.030Z,67.43
2019-03-03T19:32:39.020Z,67.52
2019-03-03T19:33:39.007Z,67.73
2019-03-03T19:34:39.007Z,67.83
2019-03-03T19:35:39.009Z,67.73
2019-03-03T19:36:38.994Z,68.04
2019-03-03T19:37:38.968Z,68.34
2019-03-03T19:38:38.952Z,68.04
2019-03-03T19:39:38.942Z,68.65
2019-03-03T19:40:38.948Z,68.24
2019-03-03T19:41:38.922Z,67.93
2019-03-03T19:42:38.930Z,67.93
2019-03-03T19:43:38.903Z,68.13
2019-03-03T19:44:38.890Z,68.54
2019-03-03T19:45:38.894Z,69.06
2019-03-03T19:46:38.917Z,68.44
2019-03-03T19:47:38.858Z,68.44
2019-03-03T19:48:38.841Z,68.44
2019-03-03T19:49:38.841Z,69.76
2019-03-03T19:50:38.849Z,68.85
2019-03-03T19:51:38.830Z,68.44
2019-03-03T19:52:38.802Z,68.57
2019-03-03T19:53:39.156Z,68.98
2019-03-03T19:54:38.780Z,68.95
2019-03-03T19:55:38.781Z,68.85
2019-03-03T19:56:38.759Z,68.88
2019-03-03T19:57:38.738Z,69.19
2019-03-03T19:58:38.727Z,69.97
2019-03-03T19:59:38.729Z,69.09
2019-03-03T20:00:39.294Z,68.48
2019-03-03T20:01:38.722Z,68.88
2019-03-03T20:02:38.710Z,69.09
2019-03-03T20:03:38.671Z,69.19
2019-03-03T20:04:38.662Z,69.39
2019-03-03T20:05:38.653Z,68.98
2019-03-03T20:06:38.665Z,68.78
2019-03-03T20:07:38.627Z,68.98
2019-03-03T20:08:38.621Z,69.09
2019-03-03T20:09:38.607Z,68.98
2019-03-03T20:10:38.595Z,69.09
2019-03-03T20:11:38.606Z,68.65